lundi 28 avril 2014

ALERTE SPOTTING 28/04/14

320 F-GHQE Air Corsica (blanc avec titre)
    XK4501/XK4500  07h35/08h30


AT4 HB-AFF Farnair Europe
   A58222/A5221  08h15/08h55
   A5222/A58223  12h20/13h00

 Manque les prévisions de : certains AB / AH / AZ / BA / BE / IB / KM / TP / TU
*** Heures en Local Time **
Prévisions matinales soumises à modifications de dernières minute.
 Voir le log du mois pour la version 'définitive' de la journée: 
 http://www.airkalo.com/ORLYAVIATION/Logdumois.html

le TAF de la journée:
METAR: LFPO 280230Z 18004KT 9999 SCT007 BKN056 08/07 Q1007 TEMPO
BKN006=
TAF LONG: LFPO 272300Z 2800/2906 17006KT 9999 SCT008 BKN060 TEMPO 2800/2804
BKN008 TEMPO 2804/2809 RA BKN004 BECMG 2810/2812 SCT017 TEMPO
2812/2818 SHRA BKN015 TEMPO 2903/2906 3000 BR=